sensor_id;sensor_type;location;lat;lon;timestamp;temperature;humidity
40123;DHT22;25832;45.490;4.912;2023-05-19T00:00:17;12.80;99.90
40123;DHT22;25832;45.490;4.912;2023-05-19T00:02:44;12.80;99.90
40123;DHT22;25832;45.490;4.912;2023-05-19T00:05:11;12.80;99.90
40123;DHT22;25832;45.490;4.912;2023-05-19T00:07:43;12.80;99.90
40123;DHT22;25832;45.490;4.912;2023-05-19T00:10:09;12.80;99.90
40123;DHT22;25832;45.490;4.912;2023-05-19T00:12:36;12.80;99.90
40123;DHT22;25832;45.490;4.912;2023-05-19T00:15:02;12.80;99.90
40123;DHT22;25832;45.490;4.912;2023-05-19T00:17:28;12.80;99.90
40123;DHT22;25832;45.490;4.912;2023-05-19T00:19:54;12.80;99.90
40123;DHT22;25832;45.490;4.912;2023-05-19T00:22:19;12.80;99.90
40123;DHT22;25832;45.490;4.912;2023-05-19T00:24:45;12.70;99.90
40123;DHT22;25832;45.490;4.912;2023-05-19T00:27:11;12.80;99.90
40123;DHT22;25832;45.490;4.912;2023-05-19T00:29:36;12.80;99.90
40123;DHT22;25832;45.490;4.912;2023-05-19T00:32:02;12.70;99.90
40123;DHT22;25832;45.490;4.912;2023-05-19T00:34:28;12.60;99.90
40123;DHT22;25832;45.490;4.912;2023-05-19T00:36:53;12.60;99.90
40123;DHT22;25832;45.490;4.912;2023-05-19T00:39:19;12.60;99.90
40123;DHT22;25832;45.490;4.912;2023-05-19T00:41:44;12.60;99.90
40123;DHT22;25832;45.490;4.912;2023-05-19T00:44:10;12.60;99.90
40123;DHT22;25832;45.490;4.912;2023-05-19T00:46:36;12.60;99.90
40123;DHT22;25832;45.490;4.912;2023-05-19T00:49:02;12.50;99.90
40123;DHT22;25832;45.490;4.912;2023-05-19T00:51:28;12.50;99.90
40123;DHT22;25832;45.490;4.912;2023-05-19T00:53:54;12.50;99.90
40123;DHT22;25832;45.490;4.912;2023-05-19T00:56:21;12.50;99.90
40123;DHT22;25832;45.490;4.912;2023-05-19T00:58:49;12.50;99.90
40123;DHT22;25832;45.490;4.912;2023-05-19T01:01:15;12.40;99.90
40123;DHT22;25832;45.490;4.912;2023-05-19T01:03:42;12.40;99.90
40123;DHT22;25832;45.490;4.912;2023-05-19T01:06:08;12.30;99.90
40123;DHT22;25832;45.490;4.912;2023-05-19T01:08:35;12.30;99.90
40123;DHT22;25832;45.490;4.912;2023-05-19T01:11:01;12.30;99.90
40123;DHT22;25832;45.490;4.912;2023-05-19T01:13:28;12.10;99.90
40123;DHT22;25832;45.490;4.912;2023-05-19T01:16:34;12.00;99.90
40123;DHT22;25832;45.490;4.912;2023-05-19T01:32:36;11.50;99.90
40123;DHT22;25832;45.490;4.912;2023-05-19T01:35:04;11.40;99.90
40123;DHT22;25832;45.490;4.912;2023-05-19T01:37:31;11.30;99.90
40123;DHT22;25832;45.490;4.912;2023-05-19T01:39:56;11.10;99.90
40123;DHT22;25832;45.490;4.912;2023-05-19T01:42:22;11.00;99.90
40123;DHT22;25832;45.490;4.912;2023-05-19T01:44:49;10.90;99.90
40123;DHT22;25832;45.490;4.912;2023-05-19T01:47:15;10.70;99.90
40123;DHT22;25832;45.490;4.912;2023-05-19T01:49:41;10.60;99.90
40123;DHT22;25832;45.490;4.912;2023-05-19T01:52:07;10.50;99.90
40123;DHT22;25832;45.490;4.912;2023-05-19T01:54:32;10.40;99.90
40123;DHT22;25832;45.490;4.912;2023-05-19T01:57:15;10.30;99.90
40123;DHT22;25832;45.490;4.912;2023-05-19T01:59:55;10.30;99.90
40123;DHT22;25832;45.490;4.912;2023-05-19T02:02:33;10.30;99.90
40123;DHT22;25832;45.490;4.912;2023-05-19T02:05:10;10.20;99.90
40123;DHT22;25832;45.490;4.912;2023-05-19T02:07:43;10.20;99.90
40123;DHT22;25832;45.490;4.912;2023-05-19T02:10:26;10.20;99.90
40123;DHT22;25832;45.490;4.912;2023-05-19T02:12:57;10.20;99.90
40123;DHT22;25832;45.490;4.912;2023-05-19T02:15:29;10.20;99.90
40123;DHT22;25832;45.490;4.912;2023-05-19T02:17:58;10.20;99.90
40123;DHT22;25832;45.490;4.912;2023-05-19T02:20:24;10.20;99.90
40123;DHT22;25832;45.490;4.912;2023-05-19T02:22:50;10.30;99.90
40123;DHT22;25832;45.490;4.912;2023-05-19T02:25:16;10.30;99.90
40123;DHT22;25832;45.490;4.912;2023-05-19T02:27:41;10.40;99.90
40123;DHT22;25832;45.490;4.912;2023-05-19T02:30:08;10.50;99.90
40123;DHT22;25832;45.490;4.912;2023-05-19T02:32:34;10.60;99.90
40123;DHT22;25832;45.490;4.912;2023-05-19T02:35:01;10.70;99.90
40123;DHT22;25832;45.490;4.912;2023-05-19T02:37:27;10.80;99.90
40123;DHT22;25832;45.490;4.912;2023-05-19T02:39:55;10.90;99.90
40123;DHT22;25832;45.490;4.912;2023-05-19T02:42:21;10.90;99.90
40123;DHT22;25832;45.490;4.912;2023-05-19T02:44:47;11.00;99.90
40123;DHT22;25832;45.490;4.912;2023-05-19T02:47:13;11.10;99.90
40123;DHT22;25832;45.490;4.912;2023-05-19T02:49:39;11.10;99.90
40123;DHT22;25832;45.490;4.912;2023-05-19T02:52:05;11.10;99.90
40123;DHT22;25832;45.490;4.912;2023-05-19T02:54:32;11.20;99.90
40123;DHT22;25832;45.490;4.912;2023-05-19T02:56:59;11.20;99.90
40123;DHT22;25832;45.490;4.912;2023-05-19T02:59:25;11.30;99.90
40123;DHT22;25832;45.490;4.912;2023-05-19T03:01:55;11.20;99.90
40123;DHT22;25832;45.490;4.912;2023-05-19T03:04:21;11.30;99.90
40123;DHT22;25832;45.490;4.912;2023-05-19T03:06:46;11.20;99.90
40123;DHT22;25832;45.490;4.912;2023-05-19T03:09:12;11.30;99.90
40123;DHT22;25832;45.490;4.912;2023-05-19T03:11:38;11.20;99.90
40123;DHT22;25832;45.490;4.912;2023-05-19T03:14:04;11.20;99.90
40123;DHT22;25832;45.490;4.912;2023-05-19T03:16:30;11.20;99.90
40123;DHT22;25832;45.490;4.912;2023-05-19T03:18:56;11.20;99.90
40123;DHT22;25832;45.490;4.912;2023-05-19T03:21:21;11.20;99.90
40123;DHT22;25832;45.490;4.912;2023-05-19T03:23:47;11.20;99.90
40123;DHT22;25832;45.490;4.912;2023-05-19T03:26:13;11.10;99.90
40123;DHT22;25832;45.490;4.912;2023-05-19T03:28:38;11.10;99.90
40123;DHT22;25832;45.490;4.912;2023-05-19T03:31:04;11.10;99.90
40123;DHT22;25832;45.490;4.912;2023-05-19T03:33:30;11.00;99.90
40123;DHT22;25832;45.490;4.912;2023-05-19T03:35:56;10.90;99.90
40123;DHT22;25832;45.490;4.912;2023-05-19T03:38:22;10.80;99.90
40123;DHT22;25832;45.490;4.912;2023-05-19T03:40:47;10.70;99.90
40123;DHT22;25832;45.490;4.912;2023-05-19T03:43:13;10.60;99.90
40123;DHT22;25832;45.490;4.912;2023-05-19T03:45:40;10.50;99.90
40123;DHT22;25832;45.490;4.912;2023-05-19T03:48:06;10.50;99.90
40123;DHT22;25832;45.490;4.912;2023-05-19T03:50:32;10.30;99.90
40123;DHT22;25832;45.490;4.912;2023-05-19T03:52:58;10.10;99.90
40123;DHT22;25832;45.490;4.912;2023-05-19T03:55:25;9.80;99.90
40123;DHT22;25832;45.490;4.912;2023-05-19T03:57:51;9.50;99.90
40123;DHT22;25832;45.490;4.912;2023-05-19T04:00:20;9.40;99.90
40123;DHT22;25832;45.490;4.912;2023-05-19T04:02:46;9.20;99.90
40123;DHT22;25832;45.490;4.912;2023-05-19T04:05:11;9.10;99.90
40123;DHT22;25832;45.490;4.912;2023-05-19T04:07:37;9.00;99.90
40123;DHT22;25832;45.490;4.912;2023-05-19T04:10:06;8.90;99.90
40123;DHT22;25832;45.490;4.912;2023-05-19T04:12:32;8.90;99.90
40123;DHT22;25832;45.490;4.912;2023-05-19T04:14:58;8.90;99.90
40123;DHT22;25832;45.490;4.912;2023-05-19T04:17:24;8.80;99.90
40123;DHT22;25832;45.490;4.912;2023-05-19T04:19:51;8.80;99.90
40123;DHT22;25832;45.490;4.912;2023-05-19T04:22:17;8.70;99.90
40123;DHT22;25832;45.490;4.912;2023-05-19T04:24:43;8.70;99.90
40123;DHT22;25832;45.490;4.912;2023-05-19T04:27:08;8.60;99.90
40123;DHT22;25832;45.490;4.912;2023-05-19T04:29:40;8.60;99.90
40123;DHT22;25832;45.490;4.912;2023-05-19T04:32:06;8.60;99.90
40123;DHT22;25832;45.490;4.912;2023-05-19T04:34:35;8.60;99.90
40123;DHT22;25832;45.490;4.912;2023-05-19T04:37:07;8.60;99.90
40123;DHT22;25832;45.490;4.912;2023-05-19T04:39:34;8.60;99.90
40123;DHT22;25832;45.490;4.912;2023-05-19T04:42:03;8.70;99.90
40123;DHT22;25832;45.490;4.912;2023-05-19T04:44:29;8.70;99.90
40123;DHT22;25832;45.490;4.912;2023-05-19T04:46:56;8.80;99.90
40123;DHT22;25832;45.490;4.912;2023-05-19T04:49:22;8.80;99.90
40123;DHT22;25832;45.490;4.912;2023-05-19T04:51:52;8.80;99.90
40123;DHT22;25832;45.490;4.912;2023-05-19T04:54:18;8.90;99.90
40123;DHT22;25832;45.490;4.912;2023-05-19T04:56:44;8.90;99.90
40123;DHT22;25832;45.490;4.912;2023-05-19T04:59:10;8.90;99.90
40123;DHT22;25832;45.490;4.912;2023-05-19T05:01:35;9.00;99.90
40123;DHT22;25832;45.490;4.912;2023-05-19T05:04:05;9.10;99.90
40123;DHT22;25832;45.490;4.912;2023-05-19T05:06:31;9.10;99.90
40123;DHT22;25832;45.490;4.912;2023-05-19T05:08:57;9.10;99.90
40123;DHT22;25832;45.490;4.912;2023-05-19T05:11:23;9.10;99.90
40123;DHT22;25832;45.490;4.912;2023-05-19T05:13:48;9.20;99.90
40123;DHT22;25832;45.490;4.912;2023-05-19T05:16:15;9.30;99.90
40123;DHT22;25832;45.490;4.912;2023-05-19T05:18:41;9.50;99.90
40123;DHT22;25832;45.490;4.912;2023-05-19T05:21:07;9.60;99.90
40123;DHT22;25832;45.490;4.912;2023-05-19T05:23:33;9.70;99.90
40123;DHT22;25832;45.490;4.912;2023-05-19T05:26:00;9.80;99.90
40123;DHT22;25832;45.490;4.912;2023-05-19T05:28:32;9.90;99.90
40123;DHT22;25832;45.490;4.912;2023-05-19T05:30:57;10.10;99.90
40123;DHT22;25832;45.490;4.912;2023-05-19T05:33:23;10.30;99.90
40123;DHT22;25832;45.490;4.912;2023-05-19T05:35:49;10.60;99.90
40123;DHT22;25832;45.490;4.912;2023-05-19T05:38:15;10.90;99.90
40123;DHT22;25832;45.490;4.912;2023-05-19T05:40:41;11.40;99.90
40123;DHT22;25832;45.490;4.912;2023-05-19T05:43:06;11.90;99.90
40123;DHT22;25832;45.490;4.912;2023-05-19T05:45:32;12.20;99.90
40123;DHT22;25832;45.490;4.912;2023-05-19T05:47:57;12.60;99.90
40123;DHT22;25832;45.490;4.912;2023-05-19T05:50:23;12.90;99.90
40123;DHT22;25832;45.490;4.912;2023-05-19T05:52:49;13.20;99.90
40123;DHT22;25832;45.490;4.912;2023-05-19T05:55:17;13.40;99.90
40123;DHT22;25832;45.490;4.912;2023-05-19T05:57:43;13.50;99.90
40123;DHT22;25832;45.490;4.912;2023-05-19T06:00:09;13.70;99.90
40123;DHT22;25832;45.490;4.912;2023-05-19T06:02:47;13.80;99.90
40123;DHT22;25832;45.490;4.912;2023-05-19T06:05:13;13.80;99.90
40123;DHT22;25832;45.490;4.912;2023-05-19T06:07:39;13.90;99.90
40123;DHT22;25832;45.490;4.912;2023-05-19T06:10:06;13.90;99.90
40123;DHT22;25832;45.490;4.912;2023-05-19T06:12:33;13.90;99.90
40123;DHT22;25832;45.490;4.912;2023-05-19T06:14:59;13.80;99.90
40123;DHT22;25832;45.490;4.912;2023-05-19T06:17:25;13.70;99.90
40123;DHT22;25832;45.490;4.912;2023-05-19T06:19:50;13.80;99.90
40123;DHT22;25832;45.490;4.912;2023-05-19T06:22:16;13.90;99.90
40123;DHT22;25832;45.490;4.912;2023-05-19T06:24:42;13.90;99.90
40123;DHT22;25832;45.490;4.912;2023-05-19T06:27:07;13.90;99.90
40123;DHT22;25832;45.490;4.912;2023-05-19T06:29:33;13.90;99.90
40123;DHT22;25832;45.490;4.912;2023-05-19T06:31:59;13.90;99.90
40123;DHT22;25832;45.490;4.912;2023-05-19T06:34:24;14.10;99.90
40123;DHT22;25832;45.490;4.912;2023-05-19T06:36:51;14.20;99.90
40123;DHT22;25832;45.490;4.912;2023-05-19T06:39:16;14.50;99.90
40123;DHT22;25832;45.490;4.912;2023-05-19T06:41:42;14.90;99.90
40123;DHT22;25832;45.490;4.912;2023-05-19T06:44:08;15.10;99.90
40123;DHT22;25832;45.490;4.912;2023-05-19T06:46:33;15.40;99.90
40123;DHT22;25832;45.490;4.912;2023-05-19T06:49:00;15.60;99.90
40123;DHT22;25832;45.490;4.912;2023-05-19T06:51:25;15.70;99.90
40123;DHT22;25832;45.490;4.912;2023-05-19T06:53:51;15.80;99.90
40123;DHT22;25832;45.490;4.912;2023-05-19T06:56:17;15.80;99.90
40123;DHT22;25832;45.490;4.912;2023-05-19T06:58:44;15.80;99.90
40123;DHT22;25832;45.490;4.912;2023-05-19T07:01:10;15.80;99.90
40123;DHT22;25832;45.490;4.912;2023-05-19T07:03:35;15.70;99.80
40123;DHT22;25832;45.490;4.912;2023-05-19T07:06:01;15.70;99.90
40123;DHT22;25832;45.490;4.912;2023-05-19T07:08:27;15.90;99.90
40123;DHT22;25832;45.490;4.912;2023-05-19T07:10:53;16.10;99.90
40123;DHT22;25832;45.490;4.912;2023-05-19T07:13:20;16.20;98.80
40123;DHT22;25832;45.490;4.912;2023-05-19T07:15:46;16.20;99.10
40123;DHT22;25832;45.490;4.912;2023-05-19T07:18:13;16.20;98.70
40123;DHT22;25832;45.490;4.912;2023-05-19T07:20:39;16.20;99.00
40123;DHT22;25832;45.490;4.912;2023-05-19T07:23:05;16.20;99.40
40123;DHT22;25832;45.490;4.912;2023-05-19T07:25:30;16.40;98.70
40123;DHT22;25832;45.490;4.912;2023-05-19T07:27:57;16.20;97.90
40123;DHT22;25832;45.490;4.912;2023-05-19T07:30:23;16.00;98.90
40123;DHT22;25832;45.490;4.912;2023-05-19T07:32:49;16.00;99.00
40123;DHT22;25832;45.490;4.912;2023-05-19T07:35:14;16.00;99.10
40123;DHT22;25832;45.490;4.912;2023-05-19T07:37:40;16.20;98.70
40123;DHT22;25832;45.490;4.912;2023-05-19T07:40:06;16.20;98.70
40123;DHT22;25832;45.490;4.912;2023-05-19T07:42:33;16.30;98.50
40123;DHT22;25832;45.490;4.912;2023-05-19T07:44:58;16.20;97.80
40123;DHT22;25832;45.490;4.912;2023-05-19T07:47:24;16.40;99.90
40123;DHT22;25832;45.490;4.912;2023-05-19T07:49:50;16.60;99.20
40123;DHT22;25832;45.490;4.912;2023-05-19T07:52:15;16.50;98.70
40123;DHT22;25832;45.490;4.912;2023-05-19T07:54:43;16.60;97.40
40123;DHT22;25832;45.490;4.912;2023-05-19T07:57:08;16.60;98.40
40123;DHT22;25832;45.490;4.912;2023-05-19T07:59:34;16.60;98.20
40123;DHT22;25832;45.490;4.912;2023-05-19T08:02:00;16.70;99.90
40123;DHT22;25832;45.490;4.912;2023-05-19T08:04:25;16.80;99.60
40123;DHT22;25832;45.490;4.912;2023-05-19T08:06:52;17.00;99.50
40123;DHT22;25832;45.490;4.912;2023-05-19T08:09:18;17.00;98.50
40123;DHT22;25832;45.490;4.912;2023-05-19T08:11:44;17.00;98.20
40123;DHT22;25832;45.490;4.912;2023-05-19T08:14:11;16.80;97.50
40123;DHT22;25832;45.490;4.912;2023-05-19T08:16:37;16.80;99.30
40123;DHT22;25832;45.490;4.912;2023-05-19T08:19:03;17.00;99.50
40123;DHT22;25832;45.490;4.912;2023-05-19T08:21:31;16.70;98.90
40123;DHT22;25832;45.490;4.912;2023-05-19T08:24:02;16.80;99.20
40123;DHT22;25832;45.490;4.912;2023-05-19T08:26:28;16.80;97.30
40123;DHT22;25832;45.490;4.912;2023-05-19T08:28:54;16.90;97.30
40123;DHT22;25832;45.490;4.912;2023-05-19T08:31:20;17.10;97.60
40123;DHT22;25832;45.490;4.912;2023-05-19T08:33:46;17.20;97.50
40123;DHT22;25832;45.490;4.912;2023-05-19T08:36:12;17.30;99.00
40123;DHT22;25832;45.490;4.912;2023-05-19T08:38:38;17.50;98.00
40123;DHT22;25832;45.490;4.912;2023-05-19T08:41:03;17.70;97.40
40123;DHT22;25832;45.490;4.912;2023-05-19T08:43:30;17.70;97.40
40123;DHT22;25832;45.490;4.912;2023-05-19T08:45:57;17.40;98.00
40123;DHT22;25832;45.490;4.912;2023-05-19T08:48:23;17.50;98.70
40123;DHT22;25832;45.490;4.912;2023-05-19T08:54:14;17.90;97.90
40123;DHT22;25832;45.490;4.912;2023-05-19T08:56:42;18.20;97.70
40123;DHT22;25832;45.490;4.912;2023-05-19T08:59:09;18.10;94.10
40123;DHT22;25832;45.490;4.912;2023-05-19T09:01:36;17.90;95.10
40123;DHT22;25832;45.490;4.912;2023-05-19T09:04:02;17.70;94.70
40123;DHT22;25832;45.490;4.912;2023-05-19T09:06:28;17.60;95.10
40123;DHT22;25832;45.490;4.912;2023-05-19T09:08:56;17.60;95.60
40123;DHT22;25832;45.490;4.912;2023-05-19T09:11:22;17.80;95.30
40123;DHT22;25832;45.490;4.912;2023-05-19T09:13:48;17.70;94.70
40123;DHT22;25832;45.490;4.912;2023-05-19T09:16:15;17.70;95.70
40123;DHT22;25832;45.490;4.912;2023-05-19T09:18:53;17.70;94.50
40123;DHT22;25832;45.490;4.912;2023-05-19T09:21:28;17.70;95.30
40123;DHT22;25832;45.490;4.912;2023-05-19T09:24:03;17.70;95.10
40123;DHT22;25832;45.490;4.912;2023-05-19T09:26:41;17.80;95.70
40123;DHT22;25832;45.490;4.912;2023-05-19T09:29:16;18.00;94.90
40123;DHT22;25832;45.490;4.912;2023-05-19T09:31:55;17.90;94.10
40123;DHT22;25832;45.490;4.912;2023-05-19T09:34:30;17.70;94.40
40123;DHT22;25832;45.490;4.912;2023-05-19T09:36:57;17.40;96.20
40123;DHT22;25832;45.490;4.912;2023-05-19T09:39:24;17.40;96.20
40123;DHT22;25832;45.490;4.912;2023-05-19T09:41:51;17.60;96.10
40123;DHT22;25832;45.490;4.912;2023-05-19T09:44:25;17.60;94.80
40123;DHT22;25832;45.490;4.912;2023-05-19T09:46:55;17.60;95.40
40123;DHT22;25832;45.490;4.912;2023-05-19T09:49:25;17.80;95.00
40123;DHT22;25832;45.490;4.912;2023-05-19T09:51:58;18.00;95.80
40123;DHT22;25832;45.490;4.912;2023-05-19T09:54:25;18.20;96.40
40123;DHT22;25832;45.490;4.912;2023-05-19T09:57:03;18.20;94.40
40123;DHT22;25832;45.490;4.912;2023-05-19T09:59:30;18.20;95.90
40123;DHT22;25832;45.490;4.912;2023-05-19T10:01:59;18.20;95.30
40123;DHT22;25832;45.490;4.912;2023-05-19T10:04:26;18.20;95.60
40123;DHT22;25832;45.490;4.912;2023-05-19T10:06:53;18.30;95.00
40123;DHT22;25832;45.490;4.912;2023-05-19T10:09:22;18.40;94.30
40123;DHT22;25832;45.490;4.912;2023-05-19T10:11:52;18.60;93.20
40123;DHT22;25832;45.490;4.912;2023-05-19T10:14:25;18.70;93.60
40123;DHT22;25832;45.490;4.912;2023-05-19T10:16:54;18.80;94.30
40123;DHT22;25832;45.490;4.912;2023-05-19T10:19:22;19.00;94.50
40123;DHT22;25832;45.490;4.912;2023-05-19T10:21:49;18.90;94.40
40123;DHT22;25832;45.490;4.912;2023-05-19T10:24:14;19.00;94.40
40123;DHT22;25832;45.490;4.912;2023-05-19T10:26:59;18.90;92.90
40123;DHT22;25832;45.490;4.912;2023-05-19T10:29:33;19.10;94.10
40123;DHT22;25832;45.490;4.912;2023-05-19T10:32:05;19.10;95.60
40123;DHT22;25832;45.490;4.912;2023-05-19T10:37:44;19.40;93.30
40123;DHT22;25832;45.490;4.912;2023-05-19T10:43:07;19.40;92.40
40123;DHT22;25832;45.490;4.912;2023-05-19T10:45:50;19.30;92.10
40123;DHT22;25832;45.490;4.912;2023-05-19T10:48:19;19.30;93.30
40123;DHT22;25832;45.490;4.912;2023-05-19T10:50:45;19.30;93.10
40123;DHT22;25832;45.490;4.912;2023-05-19T10:53:16;19.50;92.50
40123;DHT22;25832;45.490;4.912;2023-05-19T10:55:54;19.60;92.90
40123;DHT22;25832;45.490;4.912;2023-05-19T11:01:16;19.70;93.60
40123;DHT22;25832;45.490;4.912;2023-05-19T11:03:53;19.80;93.60
40123;DHT22;25832;45.490;4.912;2023-05-19T11:06:32;19.80;93.70
40123;DHT22;25832;45.490;4.912;2023-05-19T11:11:50;19.50;92.00
40123;DHT22;25832;45.490;4.912;2023-05-19T11:14:25;19.50;92.20
40123;DHT22;25832;45.490;4.912;2023-05-19T11:16:55;19.60;92.50
40123;DHT22;25832;45.490;4.912;2023-05-19T11:19:27;19.90;92.90
40123;DHT22;25832;45.490;4.912;2023-05-19T11:21:54;20.00;92.20
40123;DHT22;25832;45.490;4.912;2023-05-19T11:29:49;20.00;92.10
40123;DHT22;25832;45.490;4.912;2023-05-19T11:32:16;19.80;90.40
40123;DHT22;25832;45.490;4.912;2023-05-19T11:34:43;19.70;92.30
40123;DHT22;25832;45.490;4.912;2023-05-19T11:37:10;19.70;91.50
40123;DHT22;25832;45.490;4.912;2023-05-19T11:39:36;19.70;92.20
40123;DHT22;25832;45.490;4.912;2023-05-19T11:42:01;19.80;92.50
40123;DHT22;25832;45.490;4.912;2023-05-19T11:44:27;20.00;92.50
40123;DHT22;25832;45.490;4.912;2023-05-19T11:46:53;20.10;92.10
40123;DHT22;25832;45.490;4.912;2023-05-19T11:49:18;19.90;92.30
40123;DHT22;25832;45.490;4.912;2023-05-19T11:51:45;19.80;93.00
40123;DHT22;25832;45.490;4.912;2023-05-19T11:54:11;19.70;92.20
40123;DHT22;25832;45.490;4.912;2023-05-19T11:56:41;19.70;91.50
40123;DHT22;25832;45.490;4.912;2023-05-19T11:59:07;19.50;91.10
40123;DHT22;25832;45.490;4.912;2023-05-19T12:01:34;19.30;92.10
40123;DHT22;25832;45.490;4.912;2023-05-19T12:04:01;19.20;92.70
40123;DHT22;25832;45.490;4.912;2023-05-19T12:06:29;19.10;92.30
40123;DHT22;25832;45.490;4.912;2023-05-19T12:08:56;18.90;93.50
40123;DHT22;25832;45.490;4.912;2023-05-19T12:11:22;18.70;93.60
40123;DHT22;25832;45.490;4.912;2023-05-19T12:13:49;18.60;93.60
40123;DHT22;25832;45.490;4.912;2023-05-19T12:16:19;18.50;94.60
40123;DHT22;25832;45.490;4.912;2023-05-19T12:18:44;18.60;94.70
40123;DHT22;25832;45.490;4.912;2023-05-19T12:21:10;18.70;93.70
40123;DHT22;25832;45.490;4.912;2023-05-19T12:23:37;18.80;93.00
40123;DHT22;25832;45.490;4.912;2023-05-19T12:26:03;18.90;92.80
40123;DHT22;25832;45.490;4.912;2023-05-19T12:28:29;19.00;94.30
40123;DHT22;25832;45.490;4.912;2023-05-19T12:30:56;19.00;93.00
40123;DHT22;25832;45.490;4.912;2023-05-19T12:33:23;19.00;93.10
40123;DHT22;25832;45.490;4.912;2023-05-19T12:35:49;19.10;94.50
40123;DHT22;25832;45.490;4.912;2023-05-19T12:38:15;19.20;92.70
40123;DHT22;25832;45.490;4.912;2023-05-19T12:40:41;19.20;92.50
40123;DHT22;25832;45.490;4.912;2023-05-19T12:43:07;19.20;92.60
40123;DHT22;25832;45.490;4.912;2023-05-19T12:45:42;19.30;92.40
40123;DHT22;25832;45.490;4.912;2023-05-19T12:48:11;19.10;91.80
40123;DHT22;25832;45.490;4.912;2023-05-19T12:50:38;19.00;92.50
40123;DHT22;25832;45.490;4.912;2023-05-19T12:53:07;18.90;92.00
40123;DHT22;25832;45.490;4.912;2023-05-19T12:55:41;18.90;91.90
40123;DHT22;25832;45.490;4.912;2023-05-19T12:58:10;19.00;92.80
40123;DHT22;25832;45.490;4.912;2023-05-19T13:00:45;19.00;91.80
40123;DHT22;25832;45.490;4.912;2023-05-19T13:03:19;19.00;93.20
40123;DHT22;25832;45.490;4.912;2023-05-19T13:05:48;19.10;92.60
40123;DHT22;25832;45.490;4.912;2023-05-19T13:08:20;19.20;91.40
40123;DHT22;25832;45.490;4.912;2023-05-19T13:10:48;19.10;92.90
40123;DHT22;25832;45.490;4.912;2023-05-19T13:13:15;19.10;92.50
40123;DHT22;25832;45.490;4.912;2023-05-19T13:15:42;19.00;93.10
40123;DHT22;25832;45.490;4.912;2023-05-19T13:18:09;19.00;93.90
40123;DHT22;25832;45.490;4.912;2023-05-19T13:20:36;18.90;93.30
40123;DHT22;25832;45.490;4.912;2023-05-19T13:23:03;18.90;92.50
40123;DHT22;25832;45.490;4.912;2023-05-19T13:25:31;18.90;92.70
40123;DHT22;25832;45.490;4.912;2023-05-19T13:27:58;18.80;93.40
40123;DHT22;25832;45.490;4.912;2023-05-19T13:30:26;18.90;93.70
40123;DHT22;25832;45.490;4.912;2023-05-19T13:32:52;18.70;93.90
40123;DHT22;25832;45.490;4.912;2023-05-19T13:35:18;18.60;93.90
40123;DHT22;25832;45.490;4.912;2023-05-19T13:37:44;18.60;93.90
40123;DHT22;25832;45.490;4.912;2023-05-19T13:40:10;18.50;93.90
40123;DHT22;25832;45.490;4.912;2023-05-19T13:42:35;18.60;94.30
40123;DHT22;25832;45.490;4.912;2023-05-19T13:45:02;18.60;93.60
40123;DHT22;25832;45.490;4.912;2023-05-19T13:47:28;18.70;93.70
40123;DHT22;25832;45.490;4.912;2023-05-19T13:49:54;18.80;93.50
40123;DHT22;25832;45.490;4.912;2023-05-19T13:52:20;18.80;92.60
40123;DHT22;25832;45.490;4.912;2023-05-19T13:54:47;18.80;92.20
40123;DHT22;25832;45.490;4.912;2023-05-19T13:57:16;18.70;92.40
40123;DHT22;25832;45.490;4.912;2023-05-19T13:59:42;18.70;92.80
40123;DHT22;25832;45.490;4.912;2023-05-19T14:02:08;18.60;92.40
40123;DHT22;25832;45.490;4.912;2023-05-19T14:04:37;18.50;93.10
40123;DHT22;25832;45.490;4.912;2023-05-19T14:07:04;18.50;92.60
40123;DHT22;25832;45.490;4.912;2023-05-19T14:09:30;18.50;91.90
40123;DHT22;25832;45.490;4.912;2023-05-19T14:11:56;18.40;92.60
40123;DHT22;25832;45.490;4.912;2023-05-19T14:14:22;18.40;92.50
40123;DHT22;25832;45.490;4.912;2023-05-19T14:16:47;18.60;92.90
40123;DHT22;25832;45.490;4.912;2023-05-19T14:19:13;18.70;93.00
40123;DHT22;25832;45.490;4.912;2023-05-19T14:21:39;18.80;92.40
40123;DHT22;25832;45.490;4.912;2023-05-19T14:24:05;18.80;92.00
40123;DHT22;25832;45.490;4.912;2023-05-19T14:26:31;18.90;92.60
40123;DHT22;25832;45.490;4.912;2023-05-19T14:28:57;19.00;93.00
40123;DHT22;25832;45.490;4.912;2023-05-19T14:31:22;19.10;92.50
40123;DHT22;25832;45.490;4.912;2023-05-19T14:33:48;19.10;92.10
40123;DHT22;25832;45.490;4.912;2023-05-19T14:36:14;19.00;92.40
40123;DHT22;25832;45.490;4.912;2023-05-19T14:38:39;19.00;93.00
40123;DHT22;25832;45.490;4.912;2023-05-19T14:41:06;19.10;92.60
40123;DHT22;25832;45.490;4.912;2023-05-19T14:43:31;19.00;91.80
40123;DHT22;25832;45.490;4.912;2023-05-19T14:45:57;19.10;91.80
40123;DHT22;25832;45.490;4.912;2023-05-19T14:48:23;19.00;92.20
40123;DHT22;25832;45.490;4.912;2023-05-19T14:50:50;19.00;92.60
40123;DHT22;25832;45.490;4.912;2023-05-19T14:53:16;19.00;91.60
40123;DHT22;25832;45.490;4.912;2023-05-19T14:55:42;19.10;91.80
40123;DHT22;25832;45.490;4.912;2023-05-19T14:58:08;19.00;91.70
40123;DHT22;25832;45.490;4.912;2023-05-19T15:00:34;19.00;91.40
40123;DHT22;25832;45.490;4.912;2023-05-19T15:03:00;19.10;91.50
40123;DHT22;25832;45.490;4.912;2023-05-19T15:05:25;19.10;92.10
40123;DHT22;25832;45.490;4.912;2023-05-19T15:07:51;19.10;91.30
40123;DHT22;25832;45.490;4.912;2023-05-19T15:10:17;19.10;91.30
40123;DHT22;25832;45.490;4.912;2023-05-19T15:12:46;19.10;91.70
40123;DHT22;25832;45.490;4.912;2023-05-19T15:15:12;19.00;92.20
40123;DHT22;25832;45.490;4.912;2023-05-19T15:17:39;19.00;91.30
40123;DHT22;25832;45.490;4.912;2023-05-19T15:20:06;18.90;91.40
40123;DHT22;25832;45.490;4.912;2023-05-19T15:22:31;19.00;91.30
40123;DHT22;25832;45.490;4.912;2023-05-19T15:24:57;19.00;91.30
40123;DHT22;25832;45.490;4.912;2023-05-19T15:27:23;18.90;91.20
40123;DHT22;25832;45.490;4.912;2023-05-19T15:29:49;18.80;91.40
40123;DHT22;25832;45.490;4.912;2023-05-19T15:32:14;18.80;91.70
40123;DHT22;25832;45.490;4.912;2023-05-19T15:34:40;18.80;91.90
40123;DHT22;25832;45.490;4.912;2023-05-19T15:37:06;18.70;91.80
40123;DHT22;25832;45.490;4.912;2023-05-19T15:39:31;18.60;91.80
40123;DHT22;25832;45.490;4.912;2023-05-19T15:41:58;18.60;91.70
40123;DHT22;25832;45.490;4.912;2023-05-19T15:44:24;18.60;91.80
40123;DHT22;25832;45.490;4.912;2023-05-19T15:46:49;18.50;91.90
40123;DHT22;25832;45.490;4.912;2023-05-19T15:49:15;18.40;92.00
40123;DHT22;25832;45.490;4.912;2023-05-19T15:51:42;18.50;91.40
40123;DHT22;25832;45.490;4.912;2023-05-19T15:54:08;18.50;91.80
40123;DHT22;25832;45.490;4.912;2023-05-19T15:56:34;18.60;92.00
40123;DHT22;25832;45.490;4.912;2023-05-19T15:58:59;18.50;91.90
40123;DHT22;25832;45.490;4.912;2023-05-19T16:01:25;18.50;92.10
40123;DHT22;25832;45.490;4.912;2023-05-19T16:03:51;18.40;91.90
40123;DHT22;25832;45.490;4.912;2023-05-19T16:06:16;18.40;92.30